createdAt,value
2022-11-19T00:02:08.519Z,-0.76
2022-11-19T00:04:37.026Z,-0.74
2022-11-19T00:07:05.888Z,-0.84
2022-11-19T00:09:34.319Z,-0.77
2022-11-19T00:12:21.562Z,-0.84
2022-11-19T00:14:49.962Z,-0.64
2022-11-19T00:17:18.317Z,-0.61
2022-11-19T00:19:46.737Z,-0.58
2022-11-19T00:22:15.068Z,-0.54
2022-11-19T00:24:43.584Z,-0.56
2022-11-19T00:27:13.364Z,-0.58
2022-11-19T00:29:41.727Z,-0.50
2022-11-19T00:32:10.221Z,-0.49
2022-11-19T00:34:38.638Z,-0.56
2022-11-19T00:37:07.297Z,-0.70
2022-11-19T00:39:36.075Z,-0.79
2022-11-19T00:42:04.783Z,-1.00
2022-11-19T00:44:37.352Z,-0.85
2022-11-19T00:47:06.480Z,-0.94
2022-11-19T00:49:35.391Z,-1.10
2022-11-19T00:52:03.753Z,-1.52
2022-11-19T00:54:32.237Z,-1.28
2022-11-19T00:57:01.061Z,-1.34
2022-11-19T00:59:29.496Z,-1.30
2022-11-19T01:01:59.370Z,-1.31
2022-11-19T01:04:28.284Z,-1.39
2022-11-19T01:06:56.726Z,-1.43
2022-11-19T01:09:27.403Z,-1.64
2022-11-19T01:11:56.082Z,-1.36
2022-11-19T01:14:24.457Z,-1.44
2022-11-19T01:16:52.797Z,-1.58
2022-11-19T01:19:22.913Z,-1.48
2022-11-19T01:21:51.353Z,-1.77
2022-11-19T01:24:19.803Z,-1.41
2022-11-19T01:26:48.114Z,-1.41
2022-11-19T01:29:16.725Z,-1.43
2022-11-19T01:31:45.179Z,-1.41
2022-11-19T01:34:13.506Z,-1.31
2022-11-19T01:36:43.332Z,-1.24
2022-11-19T01:39:11.725Z,-1.51
2022-11-19T01:41:40.211Z,-1.33
2022-11-19T01:44:09.598Z,-1.31
2022-11-19T01:46:40.124Z,-1.21
2022-11-19T01:49:13.744Z,-1.25
2022-11-19T01:51:45.706Z,-1.36
2022-11-19T01:54:22.369Z,-1.52
2022-11-19T01:56:50.786Z,-1.36
2022-11-19T01:59:21.160Z,-1.36
2022-11-19T02:01:49.807Z,-1.31
2022-11-19T02:04:20.633Z,-1.30
2022-11-19T02:06:50.819Z,-1.20
2022-11-19T02:09:19.590Z,-1.27
2022-11-19T02:12:10.971Z,-1.31
2022-11-19T02:14:55.087Z,-1.43
2022-11-19T02:17:33.794Z,-1.44
2022-11-19T02:20:41.634Z,-1.55
2022-11-19T02:23:46.204Z,-1.56
2022-11-19T02:26:57.499Z,-1.59
2022-11-19T02:30:01.510Z,-1.64
2022-11-19T02:32:35.578Z,-1.85
2022-11-19T02:35:13.239Z,-1.62
2022-11-19T02:37:46.348Z,-1.68
2022-11-19T02:40:20.837Z,-1.75
2022-11-19T02:42:57.739Z,-1.79
2022-11-19T02:45:30.076Z,-1.78
2022-11-19T02:48:06.128Z,-2.99
2022-11-19T02:50:37.083Z,-1.69
2022-11-19T02:53:06.989Z,-1.71
2022-11-19T02:55:37.013Z,-3.39
2022-11-19T02:58:10.764Z,-1.80
2022-11-19T03:01:01.629Z,-1.93
2022-11-19T03:03:50.331Z,-1.99
2022-11-19T03:06:22.174Z,-1.80
2022-11-19T03:08:50.789Z,-2.01
2022-11-19T03:11:23.737Z,-1.78
2022-11-19T03:14:14.094Z,-1.86
2022-11-19T03:16:44.097Z,-2.06
2022-11-19T03:19:24.695Z,-2.01
2022-11-19T03:21:58.066Z,-1.83
2022-11-19T03:24:32.405Z,-1.83
2022-11-19T03:27:05.849Z,-1.82
2022-11-19T03:29:38.993Z,-1.81
2022-11-19T03:32:12.192Z,-1.80
2022-11-19T03:34:45.161Z,-1.80
2022-11-19T03:37:16.607Z,-1.69
2022-11-19T03:39:47.057Z,-1.69
2022-11-19T03:42:20.666Z,-2.00
2022-11-19T03:44:50.662Z,-2.00
2022-11-19T03:47:23.399Z,-1.92
2022-11-19T03:50:00.941Z,-1.91
2022-11-19T03:52:30.035Z,-1.89
2022-11-19T03:54:58.737Z,-1.86
2022-11-19T03:57:28.791Z,-1.82
2022-11-19T03:59:57.169Z,-1.81
2022-11-19T04:02:25.959Z,-1.77
2022-11-19T04:04:55.760Z,-1.71
2022-11-19T04:07:25.024Z,-1.70
2022-11-19T04:09:53.422Z,-1.79
2022-11-19T04:12:23.348Z,-1.83
2022-11-19T04:14:52.442Z,-2.04
2022-11-19T04:17:21.687Z,-1.83
2022-11-19T04:19:50.057Z,-1.83
2022-11-19T04:22:19.792Z,-1.80
2022-11-19T04:24:48.284Z,-1.91
2022-11-19T04:27:16.932Z,-1.93
2022-11-19T04:29:45.398Z,-1.76
2022-11-19T04:32:13.875Z,-1.80
2022-11-19T04:34:42.234Z,-1.80
2022-11-19T04:37:10.695Z,-2.07
2022-11-19T04:39:40.424Z,-1.81
2022-11-19T04:42:08.837Z,-1.94
2022-11-19T04:44:37.230Z,-1.82
2022-11-19T04:47:05.616Z,-1.88
2022-11-19T04:49:34.399Z,-1.91
2022-11-19T04:52:02.886Z,-1.95
2022-11-19T04:54:31.535Z,-1.93
2022-11-19T04:57:01.334Z,-2.00
2022-11-19T04:59:29.756Z,-2.07
2022-11-19T05:01:58.256Z,-1.89
2022-11-19T05:04:26.674Z,-1.83
2022-11-19T05:06:55.016Z,-1.92
2022-11-19T05:09:23.422Z,-1.87
2022-11-19T05:11:52.001Z,-1.84
2022-11-19T05:14:23.770Z,-1.85
2022-11-19T05:16:55.744Z,-1.78
2022-11-19T05:19:24.209Z,-1.81
2022-11-19T05:21:52.609Z,-1.80
2022-11-19T05:24:20.975Z,-1.85
2022-11-19T05:26:49.273Z,-1.98
2022-11-19T05:29:18.030Z,-2.06
2022-11-19T05:31:47.990Z,-2.02
2022-11-19T05:34:16.769Z,-1.99
2022-11-19T05:36:45.200Z,-2.03
2022-11-19T05:39:20.279Z,-2.18
2022-11-19T05:41:50.173Z,-2.21
2022-11-19T05:44:19.028Z,-2.25
2022-11-19T05:46:48.873Z,-2.23
2022-11-19T05:49:17.349Z,-2.26
2022-11-19T05:51:48.233Z,-2.35
2022-11-19T05:54:16.833Z,-2.44
2022-11-19T05:56:45.189Z,-2.37
2022-11-19T05:59:13.577Z,-2.27
2022-11-19T06:01:41.904Z,-2.33
2022-11-19T06:04:12.010Z,-2.35
2022-11-19T06:06:40.656Z,-2.39
2022-11-19T06:09:10.020Z,-2.28
2022-11-19T06:11:50.641Z,-2.21
2022-11-19T06:14:22.182Z,-2.29
2022-11-19T06:16:51.530Z,-2.16
2022-11-19T06:19:22.663Z,-2.23
2022-11-19T06:21:51.977Z,-2.27
2022-11-19T06:24:20.848Z,-2.28
2022-11-19T06:26:49.265Z,-2.63
2022-11-19T06:29:19.088Z,-2.27
2022-11-19T06:31:47.917Z,-2.21
2022-11-19T06:34:16.312Z,-2.20
2022-11-19T06:36:50.251Z,-2.43
2022-11-19T06:39:19.445Z,-2.34
2022-11-19T06:41:48.941Z,-2.32
2022-11-19T06:44:17.558Z,-2.26
2022-11-19T06:46:46.017Z,-2.23
2022-11-19T06:49:19.943Z,-2.37
2022-11-19T06:51:50.307Z,-2.29
2022-11-19T06:54:18.679Z,-2.19
2022-11-19T06:56:47.041Z,-2.18
2022-11-19T06:59:15.462Z,-2.65
2022-11-19T07:01:43.855Z,-2.18
2022-11-19T07:04:12.770Z,-2.18
2022-11-19T07:06:41.771Z,-2.52
2022-11-19T07:09:11.592Z,-2.13
2022-11-19T07:11:39.868Z,-2.10
2022-11-19T07:14:08.631Z,-1.98
2022-11-19T07:16:38.561Z,-2.03
2022-11-19T07:19:10.035Z,-2.04
2022-11-19T07:21:38.451Z,-3.20
2022-11-19T07:24:09.109Z,-1.96
2022-11-19T07:26:39.260Z,-2.02
2022-11-19T07:29:09.419Z,-2.00
2022-11-19T07:31:37.768Z,-2.08
2022-11-19T07:34:08.612Z,-1.98
2022-11-19T07:36:37.385Z,-2.22
2022-11-19T07:39:06.257Z,-1.98
2022-11-19T07:41:52.286Z,-1.94
2022-11-19T07:44:22.025Z,-1.92
2022-11-19T07:46:50.380Z,-2.17
2022-11-19T07:49:19.160Z,-1.88
2022-11-19T07:51:47.824Z,-1.83
2022-11-19T07:54:17.308Z,-1.79
2022-11-19T07:56:45.953Z,-1.95
2022-11-19T07:59:14.481Z,-1.70
2022-11-19T08:01:44.279Z,-1.57
2022-11-19T08:04:12.804Z,-1.66
2022-11-19T08:06:41.288Z,-1.68
2022-11-19T08:09:09.683Z,-1.69
2022-11-19T08:11:38.481Z,-1.65
2022-11-19T08:14:06.983Z,-1.60
2022-11-19T08:16:52.996Z,-1.65
2022-11-19T08:19:23.127Z,-1.74
2022-11-19T08:21:52.173Z,-1.72
2022-11-19T08:24:21.833Z,-1.59
2022-11-19T08:26:50.879Z,-1.74
2022-11-19T08:29:21.456Z,-1.58
2022-11-19T08:31:50.697Z,-1.46
2022-11-19T08:34:19.745Z,-1.45
2022-11-19T08:36:49.761Z,-1.56
2022-11-19T08:39:18.322Z,-1.53
2022-11-19T08:42:04.025Z,-2.24
2022-11-19T08:44:32.642Z,-1.83
2022-11-19T08:47:01.161Z,-1.68
2022-11-19T08:49:29.578Z,-1.78
2022-11-19T08:51:59.448Z,-1.74
2022-11-19T08:54:27.779Z,-1.70
2022-11-19T08:56:56.310Z,-2.09
2022-11-19T08:59:24.800Z,-1.49
2022-11-19T09:01:53.318Z,-1.46
2022-11-19T09:04:21.946Z,-1.42
2022-11-19T09:06:50.381Z,-1.48
2022-11-19T09:09:20.277Z,-1.49
2022-11-19T09:11:48.706Z,-1.52
2022-11-19T09:14:17.204Z,-1.51
2022-11-19T09:16:45.878Z,-1.49
2022-11-19T09:19:14.229Z,-1.79
2022-11-19T09:21:42.596Z,-1.46
2022-11-19T09:24:10.985Z,-1.36
2022-11-19T09:26:40.660Z,-1.45
2022-11-19T09:29:09.003Z,-1.35
2022-11-19T09:31:38.000Z,-1.42
2022-11-19T09:34:06.624Z,-1.43
2022-11-19T09:36:35.300Z,-1.40
2022-11-19T09:39:03.854Z,-1.37
2022-11-19T09:41:45.420Z,-1.34
2022-11-19T09:44:30.243Z,-1.46
2022-11-19T09:47:08.288Z,-1.27
2022-11-19T09:49:43.105Z,-1.58
2022-11-19T09:52:15.689Z,-1.34
2022-11-19T09:54:49.644Z,-1.47
2022-11-19T09:57:25.531Z,-1.59
2022-11-19T09:59:58.806Z,-1.47
2022-11-19T10:02:27.267Z,-1.59
2022-11-19T10:04:55.726Z,-1.37
2022-11-19T10:07:34.684Z,-1.65
2022-11-19T10:10:22.294Z,-1.24
2022-11-19T10:13:12.956Z,-1.30
2022-11-19T10:15:56.278Z,-1.17
2022-11-19T10:18:35.696Z,-1.38
2022-11-19T10:21:08.425Z,-1.27
2022-11-19T10:23:48.666Z,-1.28
2022-11-19T10:26:19.708Z,-1.19
2022-11-19T10:28:56.453Z,-1.22
2022-11-19T10:31:31.694Z,-1.21
2022-11-19T10:34:07.559Z,-1.18
2022-11-19T10:36:42.129Z,-1.23
2022-11-19T10:39:18.473Z,-1.21
2022-11-19T10:41:53.375Z,-1.32
2022-11-19T10:44:44.108Z,-1.29
2022-11-19T10:47:31.249Z,-1.43
2022-11-19T10:49:59.851Z,-1.50
2022-11-19T10:52:32.402Z,-1.56
2022-11-19T10:55:04.911Z,-1.54
2022-11-19T10:57:34.414Z,-1.50
2022-11-19T11:00:04.788Z,-1.61
2022-11-19T11:02:39.564Z,-1.49
2022-11-19T11:05:12.105Z,-1.48
2022-11-19T11:07:51.842Z,-1.58
2022-11-19T11:10:44.361Z,-1.50
2022-11-19T11:13:54.284Z,-1.52
2022-11-19T11:16:26.701Z,-1.53
2022-11-19T11:18:58.327Z,-1.55
2022-11-19T11:21:36.587Z,-1.52
2022-11-19T11:24:16.064Z,-1.53
2022-11-19T11:26:44.416Z,-1.59
2022-11-19T11:29:27.486Z,-1.50
2022-11-19T11:31:57.350Z,-1.39
2022-11-19T11:34:34.465Z,-1.15
2022-11-19T11:37:05.390Z,-1.32
2022-11-19T11:39:40.569Z,-0.77
2022-11-19T11:42:17.416Z,-1.10
2022-11-19T11:44:52.414Z,-0.67
2022-11-19T11:47:24.589Z,-0.81
2022-11-19T11:50:05.047Z,-0.82
2022-11-19T11:52:38.684Z,-0.95
2022-11-19T11:55:07.771Z,-1.09
2022-11-19T11:57:37.895Z,-1.11
2022-11-19T12:00:31.475Z,-1.01
2022-11-19T12:03:06.327Z,-1.57
2022-11-19T12:05:46.570Z,-0.92
2022-11-19T12:08:28.357Z,-0.77
2022-11-19T12:11:03.949Z,-0.73
2022-11-19T12:14:06.605Z,-0.67
2022-11-19T12:16:50.534Z,-0.79
2022-11-19T12:19:32.560Z,-1.02
2022-11-19T12:22:08.222Z,-1.28
2022-11-19T12:24:50.986Z,-1.39
2022-11-19T12:27:28.083Z,-1.49
2022-11-19T12:30:05.824Z,-1.61
2022-11-19T12:33:05.568Z,-1.44
2022-11-19T12:35:53.145Z,-1.33
2022-11-19T12:38:36.465Z,-1.36
2022-11-19T12:41:17.525Z,-1.24
2022-11-19T12:43:55.667Z,-1.28
2022-11-19T12:46:36.636Z,-1.49
2022-11-19T12:49:24.878Z,-1.18
2022-11-19T12:52:05.092Z,-1.07
2022-11-19T12:54:46.878Z,-1.00
2022-11-19T12:57:30.963Z,-1.63
2022-11-19T13:00:13.026Z,-0.91
2022-11-19T13:03:00.589Z,-0.85
2022-11-19T13:05:39.938Z,-1.02
2022-11-19T13:08:18.678Z,-1.35
2022-11-19T13:10:51.290Z,-1.27
2022-11-19T13:13:27.017Z,-1.32
2022-11-19T13:16:01.106Z,-1.28
2022-11-19T13:18:34.340Z,-1.19
2022-11-19T13:21:05.387Z,-1.13
2022-11-19T13:23:40.139Z,-1.23
2022-11-19T13:26:12.897Z,-1.33
2022-11-19T13:28:45.900Z,-1.21
2022-11-19T13:31:20.201Z,-1.21
2022-11-19T13:33:53.967Z,-1.11
2022-11-19T13:36:29.691Z,-1.10
2022-11-19T13:39:05.954Z,-1.13
2022-11-19T13:42:00.496Z,-1.10
2022-11-19T13:44:41.600Z,-1.10
2022-11-19T13:47:17.028Z,-1.05
2022-11-19T13:49:48.083Z,-1.07
2022-11-19T13:52:27.868Z,-1.04
2022-11-19T13:54:59.430Z,-1.33
2022-11-19T13:57:31.587Z,-1.00
2022-11-19T14:00:03.873Z,-0.97
2022-11-19T14:03:07.927Z,-1.07
2022-11-19T14:06:03.508Z,-0.94
2022-11-19T14:08:49.716Z,-0.99
2022-11-19T14:11:36.456Z,-1.12
2022-11-19T14:14:36.550Z,-1.32
2022-11-19T14:17:31.492Z,-1.51
2022-11-19T14:20:17.252Z,-1.56
2022-11-19T14:23:13.032Z,-1.60
2022-11-19T14:26:01.429Z,-1.66
2022-11-19T14:28:49.950Z,-1.83
2022-11-19T14:31:19.803Z,-1.95
2022-11-19T14:34:04.300Z,-1.83
2022-11-19T14:36:45.066Z,-1.78
2022-11-19T14:39:21.023Z,-1.80
2022-11-19T14:42:16.303Z,-1.72
2022-11-19T14:44:46.628Z,-1.98
2022-11-19T14:47:36.364Z,-1.80
2022-11-19T14:50:08.579Z,-1.92
2022-11-19T14:52:40.028Z,-1.81
2022-11-19T14:55:22.271Z,-1.96
2022-11-19T14:58:02.974Z,-1.79
2022-11-19T15:00:36.687Z,-1.79
2022-11-19T15:03:09.457Z,-1.82
2022-11-19T15:05:42.571Z,-1.85
2022-11-19T15:08:32.305Z,-1.98
2022-11-19T15:11:09.140Z,-1.99
2022-11-19T15:13:39.324Z,-2.04
2022-11-19T15:16:12.872Z,-2.10
2022-11-19T15:19:23.389Z,-2.14
2022-11-19T15:22:40.384Z,-2.26
2022-11-19T15:25:24.458Z,-2.32
2022-11-19T15:28:24.823Z,-2.35
2022-11-19T15:31:06.576Z,-2.39
2022-11-19T15:34:14.601Z,-2.44
2022-11-19T15:36:48.553Z,-2.50
2022-11-19T15:39:23.984Z,-2.55
2022-11-19T15:42:01.905Z,-2.56
2022-11-19T15:44:39.052Z,-2.75
2022-11-19T15:47:13.895Z,-2.66
2022-11-19T15:49:44.305Z,-2.73
2022-11-19T15:52:21.720Z,-2.77
2022-11-19T15:54:50.064Z,-2.82
2022-11-19T15:57:27.523Z,-2.86
2022-11-19T15:59:59.898Z,-2.89
2022-11-19T16:02:35.282Z,-3.07
2022-11-19T16:05:04.529Z,-3.40
2022-11-19T16:07:34.776Z,-3.02
2022-11-19T16:10:04.755Z,-3.08
2022-11-19T16:12:50.133Z,-3.10
2022-11-19T16:15:41.252Z,-3.14
2022-11-19T16:18:16.433Z,-3.29
2022-11-19T16:20:47.994Z,-3.13
2022-11-19T16:23:21.005Z,-3.17
2022-11-19T16:25:50.261Z,-3.22
2022-11-19T16:28:21.555Z,-3.17
2022-11-19T16:30:51.317Z,-3.14
2022-11-19T16:33:22.381Z,-3.12
2022-11-19T16:35:53.527Z,-3.15
2022-11-19T16:38:29.319Z,-3.36
2022-11-19T16:41:15.770Z,-3.20
2022-11-19T16:43:48.839Z,-3.48
2022-11-19T16:46:20.353Z,-3.50
2022-11-19T16:48:58.586Z,-3.30
2022-11-19T16:51:33.989Z,-3.32
2022-11-19T16:54:05.603Z,-3.35
2022-11-19T16:56:37.583Z,-3.76
2022-11-19T16:59:07.381Z,-3.50
2022-11-19T17:01:35.988Z,-3.64
2022-11-19T17:04:08.302Z,-3.67
2022-11-19T17:06:39.489Z,-3.80
2022-11-19T17:09:09.420Z,-3.76
2022-11-19T17:12:06.853Z,-3.77
2022-11-19T17:14:56.213Z,-3.78
2022-11-19T17:17:41.379Z,-3.76
2022-11-19T17:20:50.830Z,-3.78
2022-11-19T17:23:21.013Z,-3.86
2022-11-19T17:25:53.841Z,-3.82
2022-11-19T17:28:27.993Z,-3.84
2022-11-19T17:30:57.493Z,-4.39
2022-11-19T17:33:25.886Z,-3.89
2022-11-19T17:35:54.389Z,-3.89
2022-11-19T17:38:27.722Z,-3.88
2022-11-19T17:40:59.459Z,-4.16
2022-11-19T17:43:50.396Z,-3.92
2022-11-19T17:46:19.307Z,-3.93
2022-11-19T17:48:49.316Z,-3.92
2022-11-19T17:51:19.605Z,-3.92
2022-11-19T17:53:51.264Z,-3.95
2022-11-19T17:56:22.850Z,-4.00
2022-11-19T17:58:51.236Z,-4.02
2022-11-19T18:01:20.261Z,-3.96
2022-11-19T18:03:48.741Z,-4.00
2022-11-19T18:06:18.758Z,-4.23
2022-11-19T18:08:48.031Z,-4.17
2022-11-19T18:11:18.802Z,-4.21
2022-11-19T18:13:51.894Z,-4.25
2022-11-19T18:16:22.975Z,-4.54
2022-11-19T18:18:51.603Z,-4.28
2022-11-19T18:21:22.532Z,-4.28
2022-11-19T18:23:52.900Z,-4.42
2022-11-19T18:26:23.712Z,-4.29
2022-11-19T18:28:53.577Z,-4.30
2022-11-19T18:31:23.907Z,-4.41
2022-11-19T18:33:52.387Z,-4.36
2022-11-19T18:36:20.845Z,-4.40
2022-11-19T18:38:49.826Z,-4.40
2022-11-19T18:41:20.138Z,-4.39
2022-11-19T18:44:06.196Z,-4.59
2022-11-19T18:46:36.005Z,-4.38
2022-11-19T18:49:04.518Z,-4.71
2022-11-19T18:51:33.409Z,-4.45
2022-11-19T18:54:02.023Z,-4.57
2022-11-19T18:56:30.442Z,-4.49
2022-11-19T18:59:03.394Z,-4.48
2022-11-19T19:01:33.694Z,-4.44
2022-11-19T19:04:03.820Z,-4.48
2022-11-19T19:06:33.012Z,-4.69
2022-11-19T19:09:01.668Z,-4.56
2022-11-19T19:11:47.373Z,-4.58
2022-11-19T19:14:15.924Z,-4.71
2022-11-19T19:16:44.579Z,-4.63
2022-11-19T19:19:17.361Z,-4.87
2022-11-19T19:21:45.951Z,-5.11
2022-11-19T19:24:14.989Z,-4.70
2022-11-19T19:26:43.751Z,-4.76
2022-11-19T19:29:12.903Z,-4.80
2022-11-19T19:31:41.259Z,-4.84
2022-11-19T19:34:09.769Z,-5.19
2022-11-19T19:36:40.042Z,-4.86
2022-11-19T19:39:08.634Z,-5.23
2022-11-19T19:41:37.224Z,-4.88
2022-11-19T19:44:07.177Z,-4.95
2022-11-19T19:46:35.991Z,-4.84
2022-11-19T19:49:04.574Z,-4.93
2022-11-19T19:51:33.395Z,-4.86
2022-11-19T19:54:03.200Z,-4.92
2022-11-19T19:56:32.856Z,-4.88
2022-11-19T19:59:02.429Z,-4.90
2022-11-19T20:01:32.626Z,-4.95
2022-11-19T20:04:02.819Z,-5.16
2022-11-19T20:06:31.249Z,-5.01
2022-11-19T20:09:03.098Z,-5.03
2022-11-19T20:11:35.419Z,-5.02
2022-11-19T20:14:03.816Z,-5.02
2022-11-19T20:16:33.615Z,-5.02
2022-11-19T20:19:03.422Z,-5.18
2022-11-19T20:21:36.646Z,-5.39
2022-11-19T20:24:11.453Z,-5.35
2022-11-19T20:26:43.391Z,-5.11
2022-11-19T20:29:14.375Z,-5.15
2022-11-19T20:31:47.342Z,-5.14
2022-11-19T20:34:16.401Z,-5.16
2022-11-19T20:36:45.446Z,-5.15
2022-11-19T20:39:14.049Z,-5.15
2022-11-19T20:42:01.361Z,-5.19
2022-11-19T20:44:30.560Z,-5.23
2022-11-19T20:47:00.353Z,-5.23
2022-11-19T20:49:30.578Z,-5.26
2022-11-19T20:51:59.306Z,-5.36
2022-11-19T20:54:30.467Z,-5.57
2022-11-19T20:57:00.884Z,-5.35
2022-11-19T20:59:30.835Z,-5.35
2022-11-19T21:02:00.920Z,-5.41
2022-11-19T21:04:36.848Z,-5.40
2022-11-19T21:07:06.536Z,-5.39
2022-11-19T21:09:36.273Z,-5.98
2022-11-19T21:12:07.786Z,-5.39
2022-11-19T21:14:39.112Z,-5.44
2022-11-19T21:17:09.301Z,-5.48
2022-11-19T21:19:40.278Z,-5.65
2022-11-19T21:22:08.701Z,-5.46
2022-11-19T21:24:39.321Z,-5.43
2022-11-19T21:27:10.900Z,-5.57
2022-11-19T21:29:40.458Z,-5.58
2022-11-19T21:32:10.042Z,-5.86
2022-11-19T21:34:42.440Z,-5.59
2022-11-19T21:37:12.220Z,-5.64
2022-11-19T21:39:42.044Z,-5.68
2022-11-19T21:42:14.103Z,-5.72
2022-11-19T21:44:43.709Z,-6.00
2022-11-19T21:47:12.149Z,-5.70
2022-11-19T21:49:42.226Z,-5.92
2022-11-19T21:52:11.863Z,-5.81
2022-11-19T21:54:41.815Z,-5.82
2022-11-19T21:57:13.200Z,-5.77
2022-11-19T21:59:43.243Z,-5.75
2022-11-19T22:02:14.056Z,-5.80
2022-11-19T22:04:43.910Z,-5.96
2022-11-19T22:07:13.485Z,-5.92
2022-11-19T22:09:43.184Z,-6.44
2022-11-19T22:12:14.541Z,-5.84
2022-11-19T22:14:44.481Z,-5.88
2022-11-19T22:17:13.857Z,-5.91
2022-11-19T22:19:43.757Z,-5.88
2022-11-19T22:22:13.385Z,-5.98
2022-11-19T22:24:43.236Z,-5.87
2022-11-19T22:27:14.592Z,-5.86
2022-11-19T22:29:44.626Z,-6.01
2022-11-19T22:32:15.412Z,-5.88
2022-11-19T22:34:46.405Z,-5.88
2022-11-19T22:37:14.832Z,-5.91
2022-11-19T22:39:46.883Z,-6.03
2022-11-19T22:42:17.805Z,-5.90
2022-11-19T22:44:46.263Z,-5.93
2022-11-19T22:47:14.743Z,-6.18
2022-11-19T22:49:43.198Z,-6.03
2022-11-19T22:52:11.875Z,-6.02
2022-11-19T22:54:41.833Z,-6.00
2022-11-19T22:57:10.581Z,-6.02
2022-11-19T22:59:40.833Z,-6.00
2022-11-19T23:02:09.957Z,-6.04
2022-11-19T23:04:38.648Z,-6.00
2022-11-19T23:07:07.048Z,-6.06
2022-11-19T23:09:35.536Z,-6.59
2022-11-19T23:12:21.303Z,-6.23
2022-11-19T23:14:51.278Z,-6.85
2022-11-19T23:17:19.728Z,-6.30
2022-11-19T23:19:48.132Z,-6.70
2022-11-19T23:22:16.610Z,-6.27
2022-11-19T23:24:45.216Z,-6.29
2022-11-19T23:27:21.856Z,-6.36
2022-11-19T23:29:58.518Z,-6.38
2022-11-19T23:32:26.948Z,-6.40
2022-11-19T23:34:56.880Z,-6.39
2022-11-19T23:37:25.395Z,-6.39
2022-11-19T23:39:53.758Z,-6.33
2022-11-19T23:42:22.104Z,-6.28
2022-11-19T23:44:51.918Z,-6.49
2022-11-19T23:47:20.238Z,-6.22
2022-11-19T23:49:48.640Z,-6.18
2022-11-19T23:52:17.058Z,-6.22
2022-11-19T23:54:45.510Z,-6.26
2022-11-19T23:57:13.933Z,-6.20
2022-11-19T23:59:44.046Z,-6.29
